Time;durP1;ratioP1;P1;durP2;ratioP2;P2;SDS_P1;SDS_P2;PMS_P1;PMS_P2;Temp;Humidity;BMP_temperature;BMP_pressure;BME280_temperature;BME280_humidity;BME280_pressure;Samples;Min_cycle;Max_cycle;Signal;HPM_P1;HPM_P2
2024/03/11 00:02:25;;;;;;;28.33;14.40;;;9.80;99.90;;;;;;5051618;28;20063;-54
2024/03/11 00:04:50;;;;;;;29.80;14.03;;;9.70;99.90;;;;;;5033429;28;20039;-54
2024/03/11 00:07:16;;;;;;;30.17;14.73;;;9.70;99.90;;;;;;5033557;28;20029;-54
2024/03/11 00:09:44;;;;;;;29.60;14.67;;;9.70;99.90;;;;;;5051307;28;20032;-53
2024/03/11 00:12:17;;;;;;;29.73;14.13;;;9.70;99.90;;;;;;5051351;28;20098;-53
2024/03/11 00:14:47;;;;;;;31.20;14.33;;;9.70;99.90;;;;;;5051232;28;20037;-49
2024/03/11 00:17:13;;;;;;;32.33;14.30;;;9.70;99.90;;;;;;5051644;28;20398;-54
2024/03/11 00:19:38;;;;;;;32.80;15.83;;;9.60;99.90;;;;;;5051432;28;20036;-51
2024/03/11 00:22:04;;;;;;;35.57;18.27;;;9.60;99.90;;;;;;5051225;28;20120;-54
2024/03/11 00:24:30;;;;;;;32.40;16.87;;;9.50;99.90;;;;;;5051322;28;20025;-51
2024/03/11 00:26:56;;;;;;;37.53;16.40;;;9.50;99.90;;;;;;5051233;28;20473;-50
2024/03/11 00:29:21;;;;;;;33.70;16.73;;;9.50;99.90;;;;;;5051136;28;20095;-49
2024/03/11 00:31:48;;;;;;;32.13;15.23;;;9.40;99.90;;;;;;5051251;28;20068;-53
2024/03/11 00:34:19;;;;;;;33.03;15.37;;;9.40;99.90;;;;;;5050873;28;20060;-52
2024/03/11 00:36:47;;;;;;;28.33;14.30;;;9.30;99.90;;;;;;5050878;28;20033;-53
2024/03/11 00:39:15;;;;;;;31.77;14.73;;;9.30;99.90;;;;;;5032471;28;20043;-53
2024/03/11 00:41:41;;;;;;;30.67;15.07;;;9.30;99.90;;;;;;5050513;28;20120;-54
2024/03/11 00:44:06;;;;;;;34.23;15.57;;;9.20;99.90;;;;;;5050556;28;20107;-53
2024/03/11 00:46:32;;;;;;;32.80;15.53;;;9.10;99.90;;;;;;5050526;28;20391;-54
2024/03/11 00:48:58;;;;;;;33.53;16.03;;;9.10;99.90;;;;;;5032725;28;20052;-52
2024/03/11 00:51:24;;;;;;;33.47;15.73;;;9.00;99.90;;;;;;5050435;28;20123;-54
2024/03/11 00:53:50;;;;;;;36.47;16.80;;;9.00;99.90;;;;;;5050283;28;20075;-52
2024/03/11 00:56:16;;;;;;;36.87;16.37;;;8.90;99.90;;;;;;5050208;28;20048;-52
2024/03/11 00:58:42;;;;;;;36.70;16.30;;;8.80;99.90;;;;;;5050500;28;20461;-52
2024/03/11 01:01:10;;;;;;;35.67;15.70;;;8.70;99.90;;;;;;5050158;28;20025;-53
2024/03/11 01:03:36;;;;;;;36.33;15.90;;;8.60;99.90;;;;;;5050102;28;20029;-53
2024/03/11 01:06:01;;;;;;;37.57;17.10;;;8.50;99.90;;;;;;5032252;28;20085;-52
2024/03/11 01:08:29;;;;;;;40.03;18.13;;;8.40;99.90;;;;;;5032648;28;20033;-53
2024/03/11 01:10:55;;;;;;;41.27;18.20;;;8.40;99.90;;;;;;5050193;28;20028;-54
2024/03/11 01:13:21;;;;;;;37.50;16.10;;;8.40;99.90;;;;;;5032646;28;20036;-54
2024/03/11 01:15:48;;;;;;;37.77;16.87;;;8.50;99.90;;;;;;5032225;28;20047;-53
2024/03/11 01:18:14;;;;;;;38.83;16.80;;;8.50;99.90;;;;;;5051026;28;20059;-53
2024/03/11 01:20:40;;;;;;;38.87;18.37;;;8.50;99.90;;;;;;5050226;28;20469;-53
2024/03/11 01:23:07;;;;;;;36.27;16.13;;;8.50;99.90;;;;;;5050175;28;20073;-53
2024/03/11 01:25:33;;;;;;;39.70;17.40;;;8.50;99.90;;;;;;5050173;28;20123;-51
2024/03/11 01:27:59;;;;;;;36.03;16.50;;;8.50;99.90;;;;;;5050185;28;20048;-49
2024/03/11 01:30:24;;;;;;;37.40;17.03;;;8.50;99.90;;;;;;5032044;28;20048;-49
2024/03/11 01:32:51;;;;;;;35.90;16.90;;;8.50;99.90;;;;;;5050048;28;20115;-52
2024/03/11 01:35:17;;;;;;;42.17;17.97;;;8.50;99.90;;;;;;5049949;28;20013;-52
2024/03/11 01:37:43;;;;;;;38.70;17.13;;;8.40;99.90;;;;;;5050416;28;20691;-50
2024/03/11 01:40:09;;;;;;;40.07;17.60;;;8.40;99.90;;;;;;5050023;28;20112;-55
2024/03/11 01:42:35;;;;;;;42.30;18.40;;;8.30;99.90;;;;;;5049995;28;20401;-52
2024/03/11 01:45:02;;;;;;;43.30;19.17;;;8.30;99.90;;;;;;5049960;28;20120;-50
2024/03/11 01:47:29;;;;;;;41.03;17.53;;;8.30;99.90;;;;;;5050421;28;20044;-50
2024/03/11 01:49:59;;;;;;;49.60;19.40;;;8.20;99.90;;;;;;5049859;28;20090;-51
2024/03/11 01:52:31;;;;;;;41.00;17.50;;;8.20;99.90;;;;;;5050030;28;20490;-51
2024/03/11 01:54:58;;;;;;;50.43;19.47;;;8.20;99.90;;;;;;5050131;28;20120;-53
2024/03/11 01:57:25;;;;;;;41.60;19.33;;;8.20;99.90;;;;;;5050257;28;20071;-50
2024/03/11 01:59:52;;;;;;;45.77;19.10;;;8.20;99.90;;;;;;5050048;28;20037;-52
2024/03/11 02:02:20;;;;;;;46.60;18.87;;;8.10;99.90;;;;;;5050308;28;20417;-51
2024/03/11 02:04:47;;;;;;;46.03;19.37;;;8.10;99.90;;;;;;5049876;28;20037;-53
2024/03/11 02:07:14;;;;;;;48.93;19.93;;;8.10;99.90;;;;;;5050092;28;20072;-51
2024/03/11 02:09:43;;;;;;;45.73;18.60;;;8.10;99.90;;;;;;5049891;28;20025;-54
2024/03/11 02:12:11;;;;;;;49.10;18.63;;;8.10;99.90;;;;;;5049786;28;20033;-53
2024/03/11 02:14:37;;;;;;;45.37;19.40;;;8.10;99.90;;;;;;5050676;28;20033;-53
2024/03/11 02:17:06;;;;;;;49.13;20.07;;;8.10;99.90;;;;;;5053491;28;20029;-54
2024/03/11 02:19:41;;;;;;;;;;;8.10;99.90;;;;;;5054311;28;20465;-50
2024/03/11 02:22:08;;;;;;;48.87;19.20;;;8.10;99.90;;;;;;5053272;28;20257;-54
2024/03/11 02:24:35;;;;;;;46.67;18.73;;;8.10;99.90;;;;;;5053493;28;20163;-55
2024/03/11 02:27:02;;;;;;;48.97;19.83;;;8.10;99.90;;;;;;5053303;28;20108;-50
2024/03/11 02:29:28;;;;;;;47.63;18.27;;;8.20;99.90;;;;;;5053258;28;20033;-54
2024/03/11 02:31:54;;;;;;;49.13;19.97;;;8.20;99.90;;;;;;5053081;28;20052;-51
2024/03/11 02:34:20;;;;;;;51.17;18.93;;;8.30;99.90;;;;;;5053237;28;20028;-53
2024/03/11 02:36:50;;;;;;;48.43;19.97;;;8.30;99.90;;;;;;5051854;28;20425;-52
2024/03/11 02:39:19;;;;;;;50.10;19.97;;;8.30;99.90;;;;;;5053093;28;20428;-54
2024/03/11 02:41:46;;;;;;;46.28;19.02;;;8.30;99.90;;;;;;5053056;28;20041;-53
2024/03/11 02:44:12;;;;;;;48.80;20.03;;;8.20;99.90;;;;;;5052631;28;20428;-54
2024/03/11 02:46:39;;;;;;;50.23;20.17;;;8.20;99.90;;;;;;5052943;28;20350;-53
2024/03/11 02:49:05;;;;;;;47.67;20.57;;;8.20;99.90;;;;;;5052888;28;20359;-54
2024/03/11 02:51:30;;;;;;;52.20;20.47;;;8.10;99.90;;;;;;5052921;28;20089;-54
2024/03/11 02:53:56;;;;;;;52.27;19.77;;;8.10;99.90;;;;;;5052675;28;20059;-51
2024/03/11 02:56:22;;;;;;;52.33;20.77;;;8.10;99.90;;;;;;5052632;28;20017;-51
2024/03/11 02:58:49;;;;;;;47.43;19.40;;;8.10;99.90;;;;;;5053064;28;20134;-50
2024/03/11 03:01:16;;;;;;;53.03;20.47;;;8.10;99.90;;;;;;5052653;28;21738;-50
2024/03/11 03:03:47;;;;;;;59.90;21.90;;;8.10;99.90;;;;;;5053878;28;20087;-55
2024/03/11 03:06:16;;;;;;;55.67;20.57;;;8.20;99.90;;;;;;5052452;28;20021;-55
2024/03/11 03:08:43;;;;;;;52.65;21.25;;;8.10;99.90;;;;;;5052698;28;20035;-55
2024/03/11 03:11:08;;;;;;;54.80;20.53;;;8.10;99.90;;;;;;5034259;28;20128;-54
2024/03/11 03:13:35;;;;;;;53.97;20.73;;;8.20;99.90;;;;;;5052828;28;20519;-55
2024/03/11 03:16:01;;;;;;;52.07;21.87;;;8.20;99.90;;;;;;5052018;28;20036;-54
2024/03/11 03:18:26;;;;;;;54.60;21.57;;;8.20;99.90;;;;;;5052266;28;20028;-55
2024/03/11 03:20:52;;;;;;;54.57;21.13;;;8.20;99.90;;;;;;5052055;28;20400;-51
2024/03/11 03:23:18;;;;;;;56.73;22.00;;;8.20;99.90;;;;;;5043973;28;20021;-55
2024/03/11 03:25:43;;;;;;;56.67;22.00;;;8.20;99.90;;;;;;5033660;28;20100;-55
2024/03/11 03:28:09;;;;;;;56.73;21.80;;;8.20;99.90;;;;;;5034224;28;20109;-55
2024/03/11 03:30:35;;;;;;;54.47;20.60;;;8.20;99.90;;;;;;5051926;28;20472;-54
2024/03/11 03:33:04;;;;;;;59.30;22.13;;;8.20;99.90;;;;;;5051928;28;20119;-55
2024/03/11 03:35:30;;;;;;;57.92;21.63;;;8.20;99.90;;;;;;5051739;28;20028;-54
2024/03/11 03:37:56;;;;;;;55.60;21.90;;;8.20;99.90;;;;;;5052342;28;20389;-54
2024/03/11 03:40:23;;;;;;;57.00;21.80;;;8.20;99.90;;;;;;5051848;28;20021;-53
2024/03/11 03:42:49;;;;;;;62.23;23.37;;;8.20;99.90;;;;;;5052070;28;20037;-55
2024/03/11 03:45:17;;;;;;;64.33;23.10;;;8.20;99.90;;;;;;5051762;28;20382;-52
2024/03/11 03:47:43;;;;;;;62.63;24.10;;;8.20;99.90;;;;;;5051948;28;20029;-54
2024/03/11 03:50:12;;;;;;;63.10;24.27;;;8.20;99.90;;;;;;5051343;28;20496;-54
2024/03/11 03:52:39;;;;;;;63.17;25.00;;;8.20;99.90;;;;;;5051571;28;20033;-55
2024/03/11 03:55:05;;;;;;;64.67;24.83;;;8.10;99.90;;;;;;5051217;28;20115;-55
2024/03/11 03:57:32;;;;;;;70.13;26.43;;;8.10;99.90;;;;;;5051648;28;20470;-54
2024/03/11 03:59:58;;;;;;;64.83;25.37;;;8.10;99.90;;;;;;5051304;28;20044;-55
2024/03/11 04:02:24;;;;;;;66.00;25.40;;;8.00;99.90;;;;;;5051242;28;20044;-52
2024/03/11 04:04:50;;;;;;;72.60;26.90;;;8.00;99.90;;;;;;5051249;28;20039;-55
2024/03/11 04:07:16;;;;;;;68.07;25.53;;;8.00;99.90;;;;;;5051216;28;20025;-52
2024/03/11 04:09:41;;;;;;;62.27;25.80;;;8.10;99.90;;;;;;5051013;28;20021;-55
2024/03/11 04:12:07;;;;;;;67.17;25.90;;;8.10;99.90;;;;;;5051123;28;20458;-55
2024/03/11 04:14:33;;;;;;;65.37;25.47;;;8.10;99.90;;;;;;5051171;28;20078;-55
2024/03/11 04:16:58;;;;;;;65.57;24.40;;;8.10;99.90;;;;;;5051133;28;20044;-51
2024/03/11 04:19:25;;;;;;;63.50;24.27;;;8.10;99.90;;;;;;5051102;28;20040;-55
2024/03/11 04:21:53;;;;;;;64.93;24.37;;;8.10;99.90;;;;;;5050942;28;20033;-54
2024/03/11 04:24:22;;;;;;;67.20;24.47;;;8.00;99.90;;;;;;5042373;28;20470;-54
2024/03/11 04:26:50;;;;;;;67.10;25.73;;;8.00;99.90;;;;;;5033004;28;20048;-54
2024/03/11 04:29:16;;;;;;;60.73;24.80;;;8.00;99.90;;;;;;5051126;28;20033;-55
2024/03/11 04:31:42;;;;;;;63.83;24.27;;;8.00;99.90;;;;;;5050939;28;20036;-51
2024/03/11 04:34:08;;;;;;;64.23;24.80;;;8.00;99.90;;;;;;5050733;28;20474;-51
2024/03/11 04:36:37;;;;;;;61.30;25.27;;;7.90;99.90;;;;;;5050930;28;20120;-51
2024/03/11 04:39:04;;;;;;;59.85;24.25;;;7.90;99.90;;;;;;5050568;28;20389;-52
2024/03/11 04:41:31;;;;;;;62.03;25.00;;;7.90;99.90;;;;;;5050832;28;20047;-50
2024/03/11 04:43:58;;;;;;;60.40;23.37;;;7.90;99.90;;;;;;5051037;28;20029;-50
2024/03/11 04:46:24;;;;;;;55.03;21.63;;;7.90;99.90;;;;;;5050321;28;20041;-54
2024/03/11 04:48:49;;;;;;;55.93;23.03;;;7.90;99.90;;;;;;5050853;28;20032;-50
2024/03/11 04:51:15;;;;;;;61.67;23.50;;;7.80;99.90;;;;;;5050404;28;20087;-52
2024/03/11 04:53:41;;;;;;;60.77;24.83;;;7.80;99.90;;;;;;5050624;28;20024;-52
2024/03/11 04:56:07;;;;;;;61.77;23.40;;;7.80;99.90;;;;;;5050503;28;20052;-54
2024/03/11 04:58:32;;;;;;;58.20;22.83;;;7.90;99.90;;;;;;5050878;28;20021;-54
2024/03/11 05:00:58;;;;;;;58.97;23.10;;;7.90;99.90;;;;;;5050196;28;20511;-53
2024/03/11 05:03:24;;;;;;;62.10;25.67;;;7.90;99.90;;;;;;5050900;28;20029;-53
2024/03/11 05:05:50;;;;;;;63.57;23.10;;;7.90;99.90;;;;;;5050430;28;20056;-54
2024/03/11 05:08:15;;;;;;;66.07;23.93;;;7.90;99.90;;;;;;5050571;28;20358;-50
2024/03/11 05:10:41;;;;;;;58.10;23.27;;;7.90;99.90;;;;;;5050443;28;20025;-51
2024/03/11 05:13:07;;;;;;;63.73;24.43;;;7.80;99.90;;;;;;5050520;28;20517;-51
2024/03/11 05:15:33;;;;;;;58.90;24.13;;;7.80;99.90;;;;;;5050356;28;20401;-52
2024/03/11 05:18:00;;;;;;;58.33;22.40;;;7.80;99.90;;;;;;5050565;28;20025;-53
2024/03/11 05:20:26;;;;;;;59.67;23.30;;;7.90;99.90;;;;;;5050138;28;20036;-54
2024/03/11 05:22:51;;;;;;;61.07;23.50;;;7.90;99.90;;;;;;5032601;28;20040;-52
2024/03/11 05:25:17;;;;;;;60.00;23.80;;;7.90;99.90;;;;;;5050354;28;20509;-50
2024/03/11 05:27:48;;;;;;;62.97;23.87;;;7.90;99.90;;;;;;5050594;28;20025;-54
2024/03/11 05:30:14;;;;;;;59.50;23.80;;;7.90;99.90;;;;;;5050021;28;20449;-55
2024/03/11 05:32:42;;;;;;;59.83;24.17;;;7.90;99.90;;;;;;5050573;28;20060;-55
2024/03/11 05:35:08;;;;;;;61.53;24.20;;;7.80;99.90;;;;;;5049980;28;20025;-54
2024/03/11 05:37:34;;;;;;;62.50;22.97;;;7.80;99.90;;;;;;5050519;28;20439;-55
2024/03/11 05:40:00;;;;;;;60.03;24.20;;;7.80;99.90;;;;;;5050328;28;20033;-53
2024/03/11 05:42:25;;;;;;;57.10;22.87;;;7.80;99.90;;;;;;5050118;28;20559;-55
2024/03/11 05:44:51;;;;;;;61.50;24.00;;;7.80;99.90;;;;;;5050039;28;20025;-53
2024/03/11 05:47:17;;;;;;;61.50;23.47;;;7.80;99.90;;;;;;5045888;28;20037;-54
2024/03/11 05:49:44;;;;;;;66.50;24.30;;;7.80;99.90;;;;;;5051061;28;20029;-53
2024/03/11 05:52:09;;;;;;;70.80;25.97;;;7.80;99.90;;;;;;5053721;28;20017;-53
2024/03/11 05:54:38;;;;;;;64.33;24.30;;;7.80;99.90;;;;;;5053670;28;20028;-54
2024/03/11 05:57:08;;;;;;;62.95;23.75;;;7.80;99.90;;;;;;5053163;28;20039;-55
2024/03/11 05:59:34;;;;;;;61.60;23.40;;;7.80;99.90;;;;;;5053365;28;20074;-52
2024/03/11 06:02:01;;;;;;;61.33;24.70;;;7.70;99.90;;;;;;5053503;28;20025;-51
2024/03/11 06:04:27;;;;;;;67.33;24.37;;;7.70;99.90;;;;;;5053637;28;20113;-54
2024/03/11 06:06:54;;;;;;;70.80;24.43;;;7.70;99.90;;;;;;5053036;28;20469;-55
2024/03/11 06:09:19;;;;;;;62.87;26.33;;;7.70;99.90;;;;;;5050883;28;20025;-54
2024/03/11 06:11:47;;;;;;;63.67;24.13;;;7.70;99.90;;;;;;5053147;28;20024;-55
2024/03/11 06:14:13;;;;;;;70.83;26.47;;;7.70;99.90;;;;;;5047317;28;20057;-54
2024/03/11 06:16:42;;;;;;;72.33;27.00;;;7.70;99.90;;;;;;5035598;28;20481;-54
2024/03/11 06:19:10;;;;;;;71.25;27.38;;;7.70;99.90;;;;;;5053604;28;20029;-54
2024/03/11 06:21:35;;;;;;;74.53;27.30;;;7.70;99.90;;;;;;5053235;28;20395;-55
2024/03/11 06:24:01;;;;;;;79.27;28.60;;;7.70;99.90;;;;;;5053080;28;20035;-54
2024/03/11 06:26:28;;;;;;;75.53;28.17;;;7.80;99.90;;;;;;5053162;28;20025;-51
2024/03/11 06:28:55;;;;;;;79.97;28.90;;;7.80;99.90;;;;;;5053397;28;20496;-55
2024/03/11 06:31:23;;;;;;;79.77;28.73;;;7.80;99.90;;;;;;5052827;28;20037;-55
2024/03/11 06:33:50;;;;;;;78.73;27.67;;;7.80;99.90;;;;;;5053144;28;20025;-54
2024/03/11 06:36:16;;;;;;;86.13;29.97;;;7.80;99.90;;;;;;5052861;28;20029;-55
2024/03/11 06:38:44;;;;;;;84.17;30.23;;;7.80;99.90;;;;;;5053167;28;20024;-54
2024/03/11 06:41:10;;;;;;;80.97;30.93;;;7.80;99.90;;;;;;5033176;28;20036;-54
2024/03/11 06:43:38;;;;;;;83.23;30.10;;;7.80;99.90;;;;;;5051137;28;20037;-53
2024/03/11 06:46:03;;;;;;;75.50;28.10;;;7.80;99.90;;;;;;5051558;28;20021;-55
2024/03/11 06:48:29;;;;;;;79.20;29.50;;;7.80;99.90;;;;;;5052891;28;20082;-52
2024/03/11 06:50:55;;;;;;;81.07;29.50;;;7.80;99.90;;;;;;5052095;28;20013;-55
2024/03/11 06:53:20;;;;;;;78.67;29.07;;;7.80;99.90;;;;;;5052310;28;20032;-52
2024/03/11 06:55:46;;;;;;;73.60;29.33;;;7.80;99.90;;;;;;5052764;28;20087;-55
2024/03/11 06:58:12;;;;;;;74.60;26.83;;;7.80;99.90;;;;;;5052713;28;20074;-54
2024/03/11 07:00:39;;;;;;;68.43;25.63;;;7.80;99.90;;;;;;5051592;28;20543;-55
2024/03/11 07:03:05;;;;;;;68.93;27.07;;;7.90;99.90;;;;;;5052362;28;20029;-53
2024/03/11 07:05:31;;;;;;;63.87;25.30;;;7.80;99.90;;;;;;5052379;28;20090;-54
2024/03/11 07:07:57;;;;;;;70.20;27.03;;;7.90;99.90;;;;;;5052788;28;20035;-51
2024/03/11 07:10:23;;;;;;;68.80;26.63;;;7.90;99.90;;;;;;5052341;28;20112;-52
2024/03/11 07:12:49;;;;;;;66.10;26.53;;;7.90;99.90;;;;;;5052757;28;20033;-54
2024/03/11 07:15:16;;;;;;;69.47;26.57;;;7.90;99.90;;;;;;5052662;28;20033;-55
2024/03/11 07:17:41;;;;;;;64.97;27.17;;;7.90;99.90;;;;;;5053386;28;20029;-55
2024/03/11 07:20:08;;;;;;;70.60;27.20;;;7.90;99.90;;;;;;5053539;28;20029;-54
2024/03/11 07:22:38;;;;;;;67.20;26.23;;;7.90;99.90;;;;;;5045521;28;20036;-54
2024/03/11 07:25:09;;;;;;;68.17;26.03;;;8.00;99.90;;;;;;5052037;28;20033;-52
2024/03/11 07:27:39;;;;;;;67.20;26.47;;;7.90;99.90;;;;;;5052287;28;20033;-54
2024/03/11 07:30:08;;;;;;;;;;;7.90;99.90;;;;;;5034702;28;20437;-55
2024/03/11 07:32:33;;;;;;;58.15;23.20;;;7.90;99.90;;;;;;5052193;28;19999;-54
2024/03/11 07:35:00;;;;;;;64.77;25.03;;;7.90;99.90;;;;;;5052131;28;20469;-53
2024/03/11 07:37:26;;;;;;;63.07;25.60;;;8.00;99.90;;;;;;5052098;28;20068;-54
2024/03/11 07:39:52;;;;;;;70.70;25.73;;;8.00;99.90;;;;;;5052064;28;20044;-53
2024/03/11 07:42:22;;;;;;;67.23;25.47;;;8.00;99.90;;;;;;5046149;28;20033;-53
2024/03/11 07:44:48;;;;;;;62.30;25.17;;;8.00;99.90;;;;;;5047149;28;20037;-55
2024/03/11 07:47:14;;;;;;;62.80;25.07;;;8.00;99.90;;;;;;5050484;28;20490;-54
2024/03/11 07:49:39;;;;;;;63.07;24.23;;;8.00;99.90;;;;;;5050502;28;20050;-53
2024/03/11 07:52:06;;;;;;;61.80;23.87;;;8.00;99.90;;;;;;5043064;28;20040;-54
2024/03/11 07:54:32;;;;;;;64.83;25.77;;;7.90;99.90;;;;;;5050987;28;20056;-54
2024/03/11 07:56:58;;;;;;;55.70;24.33;;;7.90;99.90;;;;;;5050893;28;20098;-55
2024/03/11 07:59:23;;;;;;;58.90;24.07;;;8.00;99.90;;;;;;5043091;28;20029;-55
2024/03/11 08:01:50;;;;;;;66.50;25.03;;;8.00;99.90;;;;;;5022201;28;20026;-53
2024/03/11 08:04:16;;;;;;;63.40;24.63;;;8.00;99.90;;;;;;5046792;28;20367;-54
2024/03/11 08:06:42;;;;;;;59.77;23.13;;;8.00;99.90;;;;;;5044228;28;20126;-55
2024/03/11 08:09:09;;;;;;;57.50;23.60;;;7.90;99.90;;;;;;5050485;28;20048;-51
2024/03/11 08:11:35;;;;;;;53.77;23.10;;;7.90;99.90;;;;;;5032321;28;20048;-55
2024/03/11 08:14:02;;;;;;;57.83;24.27;;;8.00;99.90;;;;;;5044077;28;21402;-52
2024/03/11 08:16:28;;;;;;;54.53;22.87;;;8.00;99.90;;;;;;5045517;28;20053;-55
2024/03/11 08:18:54;;;;;;;59.50;23.33;;;7.90;99.90;;;;;;5050743;28;20410;-51
2024/03/11 08:21:20;;;;;;;55.97;22.17;;;8.00;99.90;;;;;;5045636;28;20505;-53
2024/03/11 08:23:46;;;;;;;57.93;24.77;;;8.00;99.90;;;;;;5044958;28;20029;-54
2024/03/11 08:26:12;;;;;;;57.13;23.07;;;8.00;99.90;;;;;;5049053;28;20089;-54
2024/03/11 08:28:39;;;;;;;59.63;23.23;;;8.00;99.90;;;;;;5049989;28;20029;-54
2024/03/11 08:31:08;;;;;;;56.87;23.83;;;8.00;99.90;;;;;;5044274;28;20033;-55
2024/03/11 08:33:35;;;;;;;58.30;23.60;;;8.10;99.90;;;;;;5045977;28;20426;-50
2024/03/11 08:36:05;;;;;;;57.27;22.67;;;8.10;99.90;;;;;;5047958;28;20032;-50
2024/03/11 08:38:31;;;;;;;;;;;8.10;99.90;;;;;;5045982;28;20052;-50
2024/03/11 08:40:57;;;;;;;55.93;22.67;;;8.10;99.90;;;;;;5049460;28;19916;-52
2024/03/11 08:43:22;;;;;;;55.40;23.03;;;8.10;99.90;;;;;;5049088;28;20029;-55
2024/03/11 08:45:48;;;;;;;59.07;23.43;;;8.10;99.90;;;;;;5036883;28;20029;-54
2024/03/11 08:48:14;;;;;;;52.70;23.77;;;8.10;99.90;;;;;;5021109;28;20555;-53
2024/03/11 08:50:39;;;;;;;55.13;22.43;;;8.10;99.90;;;;;;5038363;28;20043;-51
2024/03/11 08:53:08;;;;;;;56.63;22.40;;;8.20;99.90;;;;;;5035812;28;20630;-52
2024/03/11 08:55:34;;;;;;;57.08;22.38;;;8.20;99.90;;;;;;5020981;28;20036;-53
2024/03/11 08:58:05;;;;;;;57.93;23.30;;;8.20;99.90;;;;;;5037424;28;20029;-52
2024/03/11 09:00:31;;;;;;;52.73;21.77;;;8.10;99.90;;;;;;5039790;28;20041;-54
2024/03/11 09:02:57;;;;;;;52.10;21.53;;;8.10;99.90;;;;;;5042284;28;20056;-54
2024/03/11 09:05:23;;;;;;;49.20;21.63;;;8.10;99.90;;;;;;5044055;28;20056;-54
2024/03/11 09:07:51;;;;;;;51.90;21.93;;;8.10;99.90;;;;;;5044277;28;20103;-54
2024/03/11 09:10:17;;;;;;;55.97;22.20;;;8.10;99.90;;;;;;5027224;28;20057;-54
2024/03/11 09:12:44;;;;;;;56.07;22.70;;;8.10;99.90;;;;;;5049360;28;20094;-54
2024/03/11 09:15:17;;;;;;;53.50;21.17;;;8.10;99.90;;;;;;5047765;28;20092;-54
2024/03/11 09:17:50;;;;;;;49.57;21.30;;;8.20;99.90;;;;;;5048128;28;20203;-54
2024/03/11 09:20:17;;;;;;;51.20;21.90;;;8.20;99.90;;;;;;5046306;28;20543;-54
2024/03/11 09:22:47;;;;;;;53.40;23.30;;;8.20;99.90;;;;;;5046093;28;20025;-54
2024/03/11 09:25:23;;;;;;;52.43;21.23;;;8.20;99.90;;;;;;5052654;28;20543;-53
2024/03/11 09:27:59;;;;;;;53.87;22.40;;;8.30;99.90;;;;;;5055377;28;20482;-53
2024/03/11 09:30:28;;;;;;;48.70;21.20;;;8.30;99.90;;;;;;5053814;28;20037;-49
2024/03/11 09:32:55;;;;;;;53.67;22.63;;;8.30;99.90;;;;;;5047979;28;20060;-52
2024/03/11 09:35:21;;;;;;;47.97;20.87;;;8.30;99.90;;;;;;5055775;28;20054;-50
2024/03/11 09:37:51;;;;;;;46.13;21.83;;;8.30;99.90;;;;;;5054522;28;20095;-49
2024/03/11 09:40:19;;;;;;;52.90;21.80;;;8.30;99.90;;;;;;5055337;28;20021;-53
2024/03/11 09:42:48;;;;;;;49.90;21.53;;;8.40;99.90;;;;;;5047653;28;20033;-51
2024/03/11 09:45:20;;;;;;;47.97;20.20;;;8.50;99.90;;;;;;5055611;28;20048;-53
2024/03/11 09:47:55;;;;;;;48.60;19.17;;;8.40;99.90;;;;;;5047058;28;20048;-54
2024/03/11 09:50:27;;;;;;;49.20;21.07;;;8.40;99.90;;;;;;5050235;28;20033;-54
2024/03/11 09:53:03;;;;;;;44.90;19.97;;;8.40;99.90;;;;;;5055207;28;20090;-53
2024/03/11 09:55:29;;;;;;;46.23;20.33;;;8.40;99.90;;;;;;5031077;28;20071;-51
2024/03/11 09:58:01;;;;;;;48.73;20.20;;;8.40;99.90;;;;;;5048429;28;20033;-50
2024/03/11 10:00:28;;;;;;;44.60;20.30;;;8.40;99.90;;;;;;5046478;28;20116;-50
2024/03/11 10:03:00;;;;;;;48.50;19.50;;;8.40;99.90;;;;;;5031618;28;20115;-50
2024/03/11 10:05:27;;;;;;;47.27;20.00;;;8.40;99.90;;;;;;5055230;28;20033;-50
2024/03/11 10:07:54;;;;;;;49.67;20.67;;;8.40;99.90;;;;;;5050722;28;20501;-52
2024/03/11 10:10:23;;;;;;;43.43;19.40;;;8.40;99.90;;;;;;5048515;28;20112;-55
2024/03/11 10:12:53;;;;;;;50.07;20.33;;;8.40;99.90;;;;;;5051731;28;20069;-54
2024/03/11 10:15:30;;;;;;;46.83;20.17;;;8.40;99.90;;;;;;5043821;28;20021;-54
2024/03/11 10:18:01;;;;;;;45.10;20.10;;;8.40;99.90;;;;;;5055208;28;20036;-53
2024/03/11 10:20:34;;;;;;;44.53;18.50;;;8.40;99.90;;;;;;5054562;28;20052;-50
2024/03/11 10:23:09;;;;;;;45.70;20.13;;;8.40;99.90;;;;;;5055259;28;20445;-52
2024/03/11 10:25:36;;;;;;;47.63;19.27;;;8.30;99.90;;;;;;5035702;28;20029;-51
2024/03/11 10:28:06;;;;;;;43.23;19.33;;;8.40;99.90;;;;;;5059372;28;20029;-53
2024/03/11 10:30:32;;;;;;;44.60;19.23;;;8.30;99.90;;;;;;5053589;28;20051;-54
2024/03/11 10:33:01;;;;;;;42.37;19.57;;;8.30;99.90;;;;;;5055173;28;20067;-52
2024/03/11 10:35:39;;;;;;;47.30;20.33;;;8.30;99.90;;;;;;5053372;28;20116;-55
2024/03/11 10:38:10;;;;;;;45.87;19.17;;;8.30;99.90;;;;;;5036712;28;20032;-54
2024/03/11 10:40:38;;;;;;;45.37;19.20;;;8.30;99.90;;;;;;5051817;28;20033;-54
2024/03/11 10:43:21;;;;;;;43.67;18.50;;;8.30;99.90;;;;;;5051218;28;20482;-54
2024/03/11 10:45:49;;;;;;;39.60;18.40;;;8.30;99.90;;;;;;5049958;28;20342;-55
2024/03/11 10:48:17;;;;;;;38.00;18.63;;;8.30;99.90;;;;;;5038651;28;20032;-55
2024/03/11 10:50:44;;;;;;;43.47;19.63;;;8.30;99.90;;;;;;5051527;28;20061;-55
2024/03/11 10:53:21;;;;;;;41.90;17.77;;;8.30;99.90;;;;;;5048880;28;20073;-54
2024/03/11 10:55:58;;;;;;;44.73;19.27;;;8.30;99.90;;;;;;5043772;28;20095;-54
2024/03/11 10:58:28;;;;;;;46.13;19.67;;;8.30;99.90;;;;;;5046153;28;20037;-54
2024/03/11 11:01:01;;;;;;;44.70;19.57;;;8.30;99.90;;;;;;5046233;28;20059;-54
2024/03/11 11:03:30;;;;;;;46.30;19.93;;;8.30;99.90;;;;;;5047941;28;20359;-53
2024/03/11 11:06:09;;;;;;;44.58;19.48;;;8.30;99.90;;;;;;5045919;28;20413;-53
2024/03/11 11:08:38;;;;;;;;;;;8.30;99.90;;;;;;5048042;28;20418;-55
2024/03/11 11:11:05;;;;;;;48.45;19.40;;;8.30;99.90;;;;;;5032806;28;19909;-54
2024/03/11 11:13:31;;;;;;;44.27;19.10;;;8.30;99.90;;;;;;5027396;28;20041;-50
2024/03/11 11:16:03;;;;;;;47.00;20.43;;;8.30;99.90;;;;;;5047962;28;20057;-52
2024/03/11 11:18:33;;;;;;;47.87;20.97;;;8.30;99.90;;;;;;5048239;28;20029;-52
2024/03/11 11:21:00;;;;;;;44.57;20.03;;;8.30;99.90;;;;;;5044415;28;20284;-54
2024/03/11 11:23:27;;;;;;;47.43;21.03;;;8.30;99.90;;;;;;5030488;28;20037;-53
2024/03/11 11:25:57;;;;;;;42.23;19.40;;;8.30;99.90;;;;;;5049292;28;20039;-53
2024/03/11 11:28:37;;;;;;;44.07;20.17;;;8.30;99.90;;;;;;5051163;28;20060;-53
2024/03/11 11:31:25;;;;;;;42.37;19.17;;;8.30;99.90;;;;;;5048151;28;20100;-50
2024/03/11 11:33:58;;;;;;;41.80;19.07;;;8.30;99.90;;;;;;5049234;28;20032;-52
2024/03/11 11:36:33;;;;;;;42.70;19.27;;;8.40;99.90;;;;;;5051346;28;20052;-54
2024/03/11 11:39:13;;;;;;;41.50;18.60;;;8.40;99.90;;;;;;5050823;28;20036;-54
2024/03/11 11:41:42;;;;;;;41.60;18.90;;;8.40;99.90;;;;;;5047938;28;20033;-54
2024/03/11 11:44:08;;;;;;;37.60;17.98;;;8.40;99.90;;;;;;5043027;28;20025;-51
2024/03/11 11:46:46;;;;;;;43.97;18.80;;;8.40;99.90;;;;;;5050779;28;20029;-54
2024/03/11 11:49:18;;;;;;;37.00;17.37;;;8.40;99.90;;;;;;5050887;28;20052;-50
2024/03/11 11:51:47;;;;;;;41.50;17.73;;;8.40;99.90;;;;;;5050948;28;20039;-49
2024/03/11 11:54:17;;;;;;;;;;;8.40;99.90;;;;;;5026269;28;20039;-50
2024/03/11 11:56:43;;;;;;;36.30;15.87;;;8.40;99.90;;;;;;5050969;28;20229;-54
2024/03/11 11:59:08;;;;;;;35.33;16.63;;;8.30;99.90;;;;;;5033313;28;20043;-55
2024/03/11 12:01:49;;;;;;;35.90;17.03;;;8.30;99.90;;;;;;5051266;28;20033;-53
2024/03/11 12:04:15;;;;;;;40.30;18.20;;;8.30;99.90;;;;;;5041619;28;20370;-55
2024/03/11 12:06:42;;;;;;;37.67;17.30;;;8.30;99.90;;;;;;5047027;28;20028;-54
2024/03/11 12:09:15;;;;;;;39.23;17.60;;;8.30;99.90;;;;;;5042661;28;20490;-54
2024/03/11 12:11:45;;;;;;;38.77;17.40;;;8.20;99.90;;;;;;5032642;28;20079;-53
2024/03/11 12:14:11;;;;;;;41.80;17.37;;;8.20;99.90;;;;;;5047365;28;20021;-52
2024/03/11 12:16:39;;;;;;;37.40;17.20;;;8.30;99.90;;;;;;5046414;28;20029;-54
2024/03/11 12:19:05;;;;;;;40.93;18.40;;;8.20;99.90;;;;;;5050551;28;20037;-52
2024/03/11 12:21:33;;;;;;;37.70;17.17;;;8.30;99.90;;;;;;5050362;28;20083;-54
2024/03/11 12:24:09;;;;;;;37.37;17.53;;;8.30;99.90;;;;;;5046964;28;20033;-54
2024/03/11 12:26:38;;;;;;;36.40;17.03;;;8.30;99.90;;;;;;5045322;28;20029;-54
2024/03/11 12:29:14;;;;;;;40.17;17.97;;;8.30;99.90;;;;;;5031580;28;20102;-54
2024/03/11 12:31:41;;;;;;;41.83;18.10;;;8.30;99.90;;;;;;5047744;28;20083;-53
2024/03/11 12:34:10;;;;;;;39.93;18.37;;;8.30;99.90;;;;;;5048066;28;20028;-54
2024/03/11 12:36:47;;;;;;;39.88;18.50;;;8.30;99.90;;;;;;5050431;28;20050;-55
2024/03/11 12:39:25;;;;;;;41.90;18.33;;;8.40;99.90;;;;;;5042620;28;20497;-54
2024/03/11 12:41:57;;;;;;;46.22;19.83;;;8.40;99.90;;;;;;5050426;28;20068;-54